createdAt,value
2023-02-16T00:00:23.617Z,0.00
2023-02-16T00:01:24.946Z,0.00
2023-02-16T00:02:25.332Z,0.00
2023-02-16T00:03:26.960Z,0.00
2023-02-16T00:04:26.794Z,0.00
2023-02-16T00:05:27.627Z,0.00
2023-02-16T00:06:28.483Z,0.00
2023-02-16T00:07:29.334Z,0.00
2023-02-16T00:08:30.203Z,0.00
2023-02-16T00:09:31.074Z,0.00
2023-02-16T00:10:31.923Z,0.00
2023-02-16T00:11:32.791Z,0.00
2023-02-16T00:12:33.641Z,0.00
2023-02-16T00:13:34.526Z,0.00
2023-02-16T00:14:35.360Z,0.00
2023-02-16T00:15:36.264Z,0.00
2023-02-16T00:16:37.121Z,0.00
2023-02-16T00:17:37.978Z,0.00
2023-02-16T00:18:38.848Z,0.00
2023-02-16T00:19:39.639Z,0.00
2023-02-16T00:20:40.474Z,0.00
2023-02-16T00:21:41.432Z,0.00
2023-02-16T00:22:42.302Z,0.00
2023-02-16T00:23:43.160Z,0.00
2023-02-16T00:24:44.006Z,0.00
2023-02-16T00:25:44.860Z,0.00
2023-02-16T00:26:45.721Z,0.00
2023-02-16T00:27:46.578Z,0.00
2023-02-16T00:28:47.454Z,0.00
2023-02-16T00:29:48.287Z,0.00
2023-02-16T00:30:49.195Z,0.00
2023-02-16T00:31:50.624Z,0.00
2023-02-16T00:32:50.551Z,0.00
2023-02-16T00:33:51.534Z,0.00
2023-02-16T00:34:52.342Z,0.00
2023-02-16T00:35:53.188Z,0.00
2023-02-16T00:36:54.059Z,0.00
2023-02-16T00:37:54.912Z,0.00
2023-02-16T00:38:55.774Z,0.00
2023-02-16T00:39:56.612Z,0.00
2023-02-16T00:40:57.467Z,0.00
2023-02-16T00:41:58.333Z,0.00
2023-02-16T00:42:59.213Z,0.00
2023-02-16T00:44:00.152Z,0.00
2023-02-16T00:45:00.929Z,0.00
2023-02-16T00:46:01.846Z,0.00
2023-02-16T00:47:02.683Z,0.00
2023-02-16T00:48:03.528Z,0.00
2023-02-16T00:49:04.516Z,0.00
2023-02-16T00:50:05.296Z,0.00
2023-02-16T00:51:20.265Z,0.00
2023-02-16T00:52:07.903Z,0.00
2023-02-16T00:53:07.792Z,0.00
2023-02-16T00:54:08.645Z,0.00
2023-02-16T00:55:09.494Z,0.00
2023-02-16T00:56:10.349Z,0.00
2023-02-16T00:57:11.434Z,0.00
2023-02-16T00:58:11.800Z,0.00
2023-02-16T00:59:12.662Z,0.00
2023-02-16T01:00:13.496Z,0.00
2023-02-16T01:01:14.402Z,0.00
2023-02-16T01:02:15.439Z,0.00
2023-02-16T01:03:15.789Z,0.00
2023-02-16T01:04:16.653Z,0.00
2023-02-16T01:05:17.431Z,0.00
2023-02-16T01:06:18.284Z,0.00
2023-02-16T01:07:19.436Z,0.00
2023-02-16T01:08:19.788Z,0.00
2023-02-16T01:09:20.642Z,0.00
2023-02-16T01:10:21.502Z,0.00
2023-02-16T01:11:22.349Z,0.00
2023-02-16T01:12:23.436Z,0.00
2023-02-16T01:13:23.781Z,0.00
2023-02-16T01:14:24.654Z,0.00
2023-02-16T01:15:25.494Z,0.00
2023-02-16T01:16:26.369Z,0.00
2023-02-16T01:17:27.242Z,0.00
2023-02-16T01:18:28.102Z,0.00
2023-02-16T01:19:29.061Z,0.00
2023-02-16T01:20:29.839Z,0.00
2023-02-16T01:21:30.705Z,0.00
2023-02-16T01:22:31.927Z,0.00
2023-02-16T01:23:32.278Z,0.00
2023-02-16T01:24:33.130Z,0.00
2023-02-16T01:25:33.982Z,0.00
2023-02-16T01:26:34.836Z,0.00
2023-02-16T01:27:35.929Z,0.00
2023-02-16T01:28:36.280Z,0.00
2023-02-16T01:29:37.279Z,0.00
2023-02-16T01:30:38.050Z,0.00
2023-02-16T01:31:39.020Z,0.00
2023-02-16T01:32:39.950Z,0.00
2023-02-16T01:33:40.803Z,0.00
2023-02-16T01:34:41.661Z,0.00
2023-02-16T01:35:42.501Z,0.00
2023-02-16T01:36:43.350Z,0.00
2023-02-16T01:37:44.424Z,0.00
2023-02-16T01:38:44.779Z,0.00
2023-02-16T01:39:45.640Z,0.00
2023-02-16T01:40:46.547Z,0.00
2023-02-16T01:41:47.403Z,0.00
2023-02-16T01:42:48.424Z,0.00
2023-02-16T01:43:48.777Z,0.00
2023-02-16T01:44:49.659Z,0.00
2023-02-16T01:45:50.477Z,0.00
2023-02-16T01:46:51.448Z,0.00
2023-02-16T01:47:52.305Z,0.00
2023-02-16T01:48:53.153Z,0.00
2023-02-16T01:49:54.026Z,0.00
2023-02-16T01:50:54.815Z,0.00
2023-02-16T01:51:55.671Z,0.00
2023-02-16T01:52:56.544Z,0.00
2023-02-16T01:53:57.381Z,0.00
2023-02-16T01:54:58.234Z,0.00
2023-02-16T01:55:59.086Z,0.00
2023-02-16T01:56:59.938Z,0.00
2023-02-16T01:58:00.800Z,0.00
2023-02-16T01:59:01.658Z,0.00
2023-02-16T02:00:02.528Z,0.00
2023-02-16T02:01:03.676Z,0.00
2023-02-16T02:02:04.207Z,0.00
2023-02-16T02:03:05.573Z,0.00
2023-02-16T02:04:05.877Z,0.00
2023-02-16T02:05:06.890Z,0.00
2023-02-16T02:06:07.695Z,0.00
2023-02-16T02:07:08.539Z,0.00
2023-02-16T02:08:09.428Z,0.00
2023-02-16T02:09:10.255Z,0.00
2023-02-16T02:10:11.102Z,0.00
2023-02-16T02:11:12.015Z,0.00
2023-02-16T02:12:12.864Z,0.00
2023-02-16T02:13:13.725Z,0.00
2023-02-16T02:14:14.575Z,0.00
2023-02-16T02:15:15.505Z,0.00
2023-02-16T02:16:16.334Z,0.00
2023-02-16T02:17:17.177Z,0.00
2023-02-16T02:18:18.039Z,0.00
2023-02-16T02:19:18.890Z,0.00
2023-02-16T02:20:19.771Z,0.00
2023-02-16T02:21:20.683Z,0.00
2023-02-16T02:22:21.535Z,0.00
2023-02-16T02:23:22.922Z,0.00
2023-02-16T02:24:23.276Z,0.00
2023-02-16T02:25:24.128Z,0.00
2023-02-16T02:26:24.978Z,0.00
2023-02-16T02:27:25.840Z,0.00
2023-02-16T02:28:26.691Z,0.00
2023-02-16T02:29:27.551Z,0.00
2023-02-16T02:30:28.502Z,0.00
2023-02-16T02:31:29.518Z,0.00
2023-02-16T02:32:29.855Z,0.00
2023-02-16T02:33:30.732Z,0.00
2023-02-16T02:34:31.580Z,0.00
2023-02-16T02:35:32.556Z,0.00
2023-02-16T02:36:33.343Z,0.00
2023-02-16T02:37:34.202Z,0.00
2023-02-16T02:38:35.067Z,0.00
2023-02-16T02:39:35.914Z,0.00
2023-02-16T02:40:36.765Z,0.00
2023-02-16T02:41:37.618Z,0.00
2023-02-16T02:42:38.470Z,0.00
2023-02-16T02:43:39.329Z,0.00
2023-02-16T02:44:40.199Z,0.00
2023-02-16T02:45:41.057Z,0.00
2023-02-16T02:46:41.956Z,0.00
2023-02-16T02:47:42.809Z,0.00
2023-02-16T02:48:43.646Z,0.00
2023-02-16T02:49:44.499Z,0.00
2023-02-16T02:50:45.458Z,0.00
2023-02-16T02:51:46.239Z,0.00
2023-02-16T02:52:47.097Z,0.00
2023-02-16T02:53:47.953Z,0.00
2023-02-16T02:54:48.811Z,0.00
2023-02-16T02:55:49.659Z,0.00
2023-02-16T02:56:50.508Z,0.00
2023-02-16T02:57:51.368Z,0.00
2023-02-16T02:58:52.433Z,0.00
2023-02-16T02:59:52.793Z,0.00
2023-02-16T03:00:53.712Z,0.00
2023-02-16T03:01:54.559Z,0.00
2023-02-16T03:02:55.381Z,0.00
2023-02-16T03:03:56.427Z,0.00
2023-02-16T03:04:56.804Z,0.00
2023-02-16T03:05:57.760Z,0.00
2023-02-16T03:06:58.546Z,0.00
2023-02-16T03:07:59.394Z,0.00
2023-02-16T03:09:00.263Z,0.00
2023-02-16T03:10:01.113Z,0.00
2023-02-16T03:11:02.201Z,0.00
2023-02-16T03:12:02.569Z,0.00
2023-02-16T03:13:03.437Z,0.00
2023-02-16T03:14:04.415Z,0.00
2023-02-16T03:15:04.769Z,0.00
2023-02-16T03:16:05.752Z,0.00
2023-02-16T03:17:06.544Z,0.00
2023-02-16T03:18:07.397Z,0.00
2023-02-16T03:19:08.267Z,0.00
2023-02-16T03:20:09.118Z,0.00
2023-02-16T03:21:10.086Z,0.00
2023-02-16T03:22:10.872Z,0.00
2023-02-16T03:23:11.719Z,0.00
2023-02-16T03:24:12.581Z,0.00
2023-02-16T03:25:13.436Z,0.00
2023-02-16T03:26:14.285Z,0.00
2023-02-16T03:27:15.144Z,0.00
2023-02-16T03:28:15.995Z,0.00
2023-02-16T03:29:16.860Z,0.00
2023-02-16T03:30:17.792Z,0.00
2023-02-16T03:31:18.778Z,0.00
2023-02-16T03:32:19.171Z,0.00
2023-02-16T03:33:20.033Z,0.00
2023-02-16T03:34:20.920Z,0.00
2023-02-16T03:35:21.782Z,0.00
2023-02-16T03:36:22.740Z,0.00
2023-02-16T03:37:23.511Z,0.00
2023-02-16T03:38:24.368Z,0.00
2023-02-16T03:39:25.410Z,0.00
2023-02-16T03:40:25.772Z,0.00
2023-02-16T03:41:26.627Z,0.00
2023-02-16T03:42:27.481Z,0.00
2023-02-16T03:43:28.338Z,0.00
2023-02-16T03:44:29.202Z,0.00
2023-02-16T03:45:30.102Z,0.00
2023-02-16T03:46:31.093Z,0.00
2023-02-16T03:47:31.875Z,0.00
2023-02-16T03:48:32.738Z,0.00
2023-02-16T03:49:33.913Z,0.00
2023-02-16T03:50:34.264Z,0.00
2023-02-16T03:51:35.248Z,0.00
2023-02-16T03:52:36.028Z,0.00
2023-02-16T03:53:36.889Z,0.00
2023-02-16T03:54:37.904Z,0.00
2023-02-16T03:55:38.263Z,0.00
2023-02-16T03:56:39.127Z,0.00
2023-02-16T03:57:39.989Z,0.00
2023-02-16T03:58:40.846Z,0.00
2023-02-16T03:59:41.705Z,0.00
2023-02-16T04:00:42.568Z,0.00
2023-02-16T04:01:43.502Z,0.00
2023-02-16T04:02:44.298Z,0.00
2023-02-16T04:03:45.161Z,0.00
2023-02-16T04:04:46.025Z,0.00
2023-02-16T04:05:46.908Z,0.00
2023-02-16T04:06:47.778Z,0.00
2023-02-16T04:07:48.567Z,0.00
2023-02-16T04:08:49.415Z,0.00
2023-02-16T04:09:50.286Z,0.00
2023-02-16T04:10:51.132Z,0.00
2023-02-16T04:11:51.984Z,0.00
2023-02-16T04:12:52.841Z,0.00
2023-02-16T04:13:53.719Z,0.00
2023-02-16T04:14:54.577Z,0.00
2023-02-16T04:15:55.431Z,0.00
2023-02-16T04:16:56.307Z,0.00
2023-02-16T04:17:57.148Z,0.00
2023-02-16T04:18:57.997Z,0.00
2023-02-16T04:19:58.864Z,0.00
2023-02-16T04:20:59.717Z,0.00
2023-02-16T04:22:00.681Z,0.00
2023-02-16T04:23:01.462Z,0.00
2023-02-16T04:24:02.354Z,0.00
2023-02-16T04:25:03.217Z,0.00
2023-02-16T04:26:04.074Z,0.00
2023-02-16T04:27:04.932Z,0.00
2023-02-16T04:28:05.783Z,0.00
2023-02-16T04:29:06.644Z,0.00
2023-02-16T04:30:07.956Z,0.00
2023-02-16T04:31:08.608Z,0.00
2023-02-16T04:32:09.146Z,0.00
2023-02-16T04:33:09.507Z,0.00
2023-02-16T04:34:10.368Z,0.00
2023-02-16T04:35:11.241Z,0.00
2023-02-16T04:36:12.094Z,0.00
2023-02-16T04:37:13.061Z,0.00
2023-02-16T04:38:13.839Z,0.00
2023-02-16T04:39:14.692Z,0.00
2023-02-16T04:40:15.563Z,0.00
2023-02-16T04:41:16.412Z,0.00
2023-02-16T04:42:17.269Z,0.00
2023-02-16T04:43:18.120Z,0.00
2023-02-16T04:44:18.972Z,0.00
2023-02-16T04:45:19.836Z,0.00
2023-02-16T04:46:20.705Z,0.00
2023-02-16T04:47:21.568Z,0.00
2023-02-16T04:48:22.415Z,0.00
2023-02-16T04:49:23.275Z,0.00
2023-02-16T04:50:24.132Z,0.00
2023-02-16T04:51:24.998Z,0.00
2023-02-16T04:52:25.962Z,0.00
2023-02-16T04:53:26.737Z,0.00
2023-02-16T04:54:27.588Z,0.00
2023-02-16T04:55:28.451Z,0.00
2023-02-16T04:56:29.301Z,0.00
2023-02-16T04:57:30.155Z,0.00
2023-02-16T04:58:31.014Z,0.00
2023-02-16T04:59:31.867Z,0.00
2023-02-16T05:00:34.545Z,0.00
2023-02-16T05:01:33.509Z,0.00
2023-02-16T05:02:34.383Z,0.00
2023-02-16T05:03:35.216Z,0.00
2023-02-16T05:04:36.113Z,0.00
2023-02-16T05:05:36.952Z,0.00
2023-02-16T05:06:37.820Z,0.00
2023-02-16T05:07:38.784Z,0.00
2023-02-16T05:08:39.563Z,0.00
2023-02-16T05:09:40.415Z,0.00
2023-02-16T05:10:41.288Z,0.00
2023-02-16T05:11:42.131Z,0.00
2023-02-16T05:12:42.985Z,0.00
2023-02-16T05:13:43.864Z,0.00
2023-02-16T05:14:44.725Z,0.00
2023-02-16T05:15:45.899Z,0.00
2023-02-16T05:16:46.246Z,0.00
2023-02-16T05:17:47.120Z,0.00
2023-02-16T05:18:47.947Z,0.00
2023-02-16T05:19:48.799Z,0.00
2023-02-16T05:20:49.667Z,0.00
2023-02-16T05:21:50.523Z,0.00
2023-02-16T05:22:51.493Z,0.00
2023-02-16T05:23:52.270Z,0.00
2023-02-16T05:24:53.126Z,0.00
2023-02-16T05:25:53.986Z,0.00
2023-02-16T05:26:54.850Z,0.00
2023-02-16T05:27:55.744Z,0.00
2023-02-16T05:28:56.557Z,0.00
2023-02-16T05:29:57.436Z,0.00
2023-02-16T05:30:58.342Z,0.00
2023-02-16T05:31:59.257Z,0.00
2023-02-16T05:33:00.111Z,0.00
2023-02-16T05:34:00.932Z,0.00
2023-02-16T05:35:01.815Z,0.00
2023-02-16T05:36:02.665Z,0.00
2023-02-16T05:37:03.522Z,0.00
2023-02-16T05:38:04.385Z,0.00
2023-02-16T05:39:05.229Z,0.00
2023-02-16T05:40:06.088Z,0.00
2023-02-16T05:41:07.391Z,0.00
2023-02-16T05:42:07.750Z,0.00
2023-02-16T05:43:08.612Z,0.00
2023-02-16T05:44:09.496Z,0.00
2023-02-16T05:45:10.348Z,0.00
2023-02-16T05:46:11.507Z,0.00
2023-02-16T05:47:11.808Z,0.00
2023-02-16T05:48:12.731Z,0.00
2023-02-16T05:49:13.520Z,0.00
2023-02-16T05:50:14.391Z,0.00
2023-02-16T05:51:15.404Z,0.00
2023-02-16T05:52:15.759Z,0.00
2023-02-16T05:53:16.720Z,0.00
2023-02-16T05:54:17.536Z,0.00
2023-02-16T05:55:18.350Z,0.00
2023-02-16T05:56:19.304Z,0.00
2023-02-16T05:57:20.160Z,0.00
2023-02-16T05:58:21.028Z,0.00
2023-02-16T05:59:21.890Z,0.00
2023-02-16T06:00:22.732Z,0.00
2023-02-16T06:01:23.614Z,0.00
2023-02-16T06:02:24.490Z,0.00
2023-02-16T06:03:25.425Z,0.00
2023-02-16T06:04:26.221Z,0.00
2023-02-16T06:05:27.070Z,0.00
2023-02-16T06:06:28.395Z,0.00
2023-02-16T06:07:28.748Z,0.00
2023-02-16T06:08:29.712Z,0.00
2023-02-16T06:09:30.491Z,0.00
2023-02-16T06:10:31.354Z,0.00
2023-02-16T06:11:32.395Z,0.00
2023-02-16T06:12:32.746Z,0.00
2023-02-16T06:13:33.600Z,0.00
2023-02-16T06:14:34.458Z,0.00
2023-02-16T06:15:35.310Z,0.00
2023-02-16T06:16:36.404Z,0.00
2023-02-16T06:17:36.746Z,0.00
2023-02-16T06:18:37.633Z,0.00
2023-02-16T06:19:38.483Z,0.00
2023-02-16T06:20:39.338Z,0.00
2023-02-16T06:21:40.205Z,0.00
2023-02-16T06:22:41.056Z,0.00
2023-02-16T06:23:41.969Z,0.00
2023-02-16T06:24:42.741Z,0.00
2023-02-16T06:25:43.600Z,0.00
2023-02-16T06:26:44.893Z,0.00
2023-02-16T06:27:45.246Z,0.00
2023-02-16T06:28:46.097Z,0.00
2023-02-16T06:29:46.951Z,0.00
2023-02-16T06:30:47.801Z,0.00
2023-02-16T06:31:48.995Z,5.62
2023-02-16T06:32:49.399Z,5.62
2023-02-16T06:33:50.249Z,5.62
2023-02-16T06:34:51.093Z,5.62
2023-02-16T06:35:51.946Z,5.62
2023-02-16T06:36:52.906Z,5.62
2023-02-16T06:37:53.758Z,11.25
2023-02-16T06:38:54.732Z,11.25
2023-02-16T06:39:55.503Z,11.25
2023-02-16T06:40:56.359Z,11.25
2023-02-16T06:41:57.219Z,16.88
2023-02-16T06:42:58.088Z,16.88
2023-02-16T06:43:58.937Z,16.88
2023-02-16T06:44:59.789Z,16.88
2023-02-16T06:46:00.646Z,22.50
2023-02-16T06:47:01.509Z,22.50
2023-02-16T06:48:02.371Z,28.12
2023-02-16T06:49:03.239Z,28.12
2023-02-16T06:50:04.088Z,33.75
2023-02-16T06:51:05.319Z,39.38
2023-02-16T06:52:05.848Z,39.38
2023-02-16T06:53:06.691Z,39.38
2023-02-16T06:54:07.662Z,45.00
2023-02-16T06:55:08.456Z,50.62
2023-02-16T06:56:09.310Z,50.62
2023-02-16T06:57:10.167Z,61.88
2023-02-16T06:58:11.021Z,73.12
2023-02-16T06:59:11.875Z,78.75
2023-02-16T07:00:12.799Z,84.38
2023-02-16T07:01:13.700Z,90.00
2023-02-16T07:02:14.569Z,106.88
2023-02-16T07:03:15.436Z,123.75
2023-02-16T07:04:16.396Z,106.88
2023-02-16T07:05:17.187Z,90.00
2023-02-16T07:06:18.045Z,90.00
2023-02-16T07:07:19.385Z,123.75
2023-02-16T07:08:19.748Z,123.75
2023-02-16T07:09:20.712Z,129.38
2023-02-16T07:10:21.489Z,135.00
2023-02-16T07:11:22.335Z,135.00
2023-02-16T07:12:23.387Z,191.25
2023-02-16T07:13:23.741Z,174.38
2023-02-16T07:14:24.589Z,118.12
2023-02-16T07:15:25.442Z,185.62
2023-02-16T07:16:26.377Z,292.50
2023-02-16T07:17:27.192Z,225.00
2023-02-16T07:18:28.045Z,123.75
2023-02-16T07:19:28.922Z,101.25
2023-02-16T07:20:29.764Z,101.25
2023-02-16T07:21:30.620Z,78.75
2023-02-16T07:22:31.483Z,73.12
2023-02-16T07:23:32.339Z,73.12
2023-02-16T07:24:33.324Z,73.12
2023-02-16T07:25:36.045Z,73.12
2023-02-16T07:26:34.789Z,73.12
2023-02-16T07:27:35.881Z,73.12
2023-02-16T07:28:36.246Z,73.12
2023-02-16T07:29:37.088Z,73.12
2023-02-16T07:30:38.037Z,73.12
2023-02-16T07:31:38.985Z,73.12
2023-02-16T07:32:39.883Z,73.12
2023-02-16T07:33:40.288Z,67.50
2023-02-16T07:34:41.119Z,67.50
2023-02-16T07:35:41.949Z,67.50
2023-02-16T07:36:42.807Z,67.50
2023-02-16T07:37:43.890Z,67.50
2023-02-16T07:38:44.327Z,67.50
2023-02-16T07:39:45.124Z,67.50
2023-02-16T07:40:45.899Z,67.50
2023-02-16T07:41:46.764Z,73.12
2023-02-16T07:42:48.008Z,73.12
2023-02-16T07:43:48.291Z,73.12
2023-02-16T07:44:49.143Z,73.12
2023-02-16T07:45:50.017Z,73.12
2023-02-16T07:46:50.849Z,73.12
2023-02-16T07:47:51.887Z,73.12
2023-02-16T07:48:52.238Z,78.75
2023-02-16T07:49:53.121Z,78.75
2023-02-16T07:50:53.956Z,78.75
2023-02-16T07:51:54.933Z,78.75
2023-02-16T07:52:55.789Z,78.75
2023-02-16T07:53:56.638Z,78.75
2023-02-16T07:54:57.608Z,78.75
2023-02-16T07:55:58.388Z,78.75
2023-02-16T07:56:59.238Z,78.75
2023-02-16T07:58:00.377Z,78.75
2023-02-16T07:59:00.746Z,78.75
2023-02-16T08:00:01.599Z,73.12
2023-02-16T08:01:02.947Z,73.12
2023-02-16T08:02:03.550Z,73.12
2023-02-16T08:03:04.480Z,73.12
2023-02-16T08:04:04.866Z,67.50
2023-02-16T08:05:05.794Z,67.50
2023-02-16T08:06:06.580Z,67.50
2023-02-16T08:07:07.436Z,67.50
2023-02-16T08:08:08.311Z,67.50
2023-02-16T08:09:09.154Z,61.88
2023-02-16T08:10:10.154Z,61.88
2023-02-16T08:11:10.959Z,61.88
2023-02-16T08:12:11.819Z,61.88
2023-02-16T08:13:12.677Z,67.50
2023-02-16T08:14:13.529Z,67.50
2023-02-16T08:15:14.386Z,67.50
2023-02-16T08:16:15.327Z,73.12
2023-02-16T08:17:16.135Z,78.75
2023-02-16T08:18:16.998Z,84.38
2023-02-16T08:19:17.853Z,90.00
2023-02-16T08:20:18.731Z,95.62
2023-02-16T08:21:19.571Z,106.88
2023-02-16T08:22:20.426Z,112.50
2023-02-16T08:23:21.287Z,118.12
2023-02-16T08:24:22.152Z,129.38
2023-02-16T08:25:23.114Z,140.62
2023-02-16T08:26:23.891Z,157.50
2023-02-16T08:27:24.746Z,174.38
2023-02-16T08:28:25.604Z,185.62
2023-02-16T08:29:26.458Z,202.50
2023-02-16T08:30:27.352Z,213.75
2023-02-16T08:31:28.307Z,225.00
2023-02-16T08:32:28.714Z,236.25
2023-02-16T08:33:29.877Z,241.88
2023-02-16T08:34:30.233Z,253.12
2023-02-16T08:35:31.149Z,264.38
2023-02-16T08:36:31.944Z,281.25
2023-02-16T08:37:32.797Z,286.88
2023-02-16T08:38:33.676Z,286.88
2023-02-16T08:39:34.550Z,281.25
2023-02-16T08:40:35.493Z,286.88
2023-02-16T08:41:36.273Z,298.12
2023-02-16T08:42:37.144Z,286.88
2023-02-16T08:43:38.006Z,253.12
2023-02-16T08:44:38.881Z,236.25
2023-02-16T08:45:39.800Z,230.62
2023-02-16T08:46:40.677Z,247.50
2023-02-16T08:47:41.566Z,258.75
2023-02-16T08:48:42.414Z,270.00
2023-02-16T08:49:43.269Z,270.00
2023-02-16T08:50:44.196Z,275.62
2023-02-16T08:51:44.982Z,270.00
2023-02-16T08:52:45.849Z,270.00
2023-02-16T08:53:46.867Z,258.75
2023-02-16T08:54:47.229Z,247.50
2023-02-16T08:55:48.199Z,230.62
2023-02-16T08:56:49.015Z,213.75
2023-02-16T08:57:49.832Z,202.50
2023-02-16T08:58:50.881Z,196.88
2023-02-16T08:59:51.222Z,191.25
2023-02-16T09:00:52.117Z,185.62
2023-02-16T09:01:52.941Z,180.00
2023-02-16T09:02:53.799Z,180.00
2023-02-16T09:03:54.663Z,180.00
2023-02-16T09:04:55.885Z,191.25
2023-02-16T09:05:56.281Z,202.50
2023-02-16T09:06:57.112Z,219.38
2023-02-16T09:07:58.013Z,253.12
2023-02-16T09:08:58.878Z,281.25
2023-02-16T09:09:59.753Z,298.12
2023-02-16T09:11:00.729Z,309.38
2023-02-16T09:12:01.500Z,326.25
2023-02-16T09:13:02.356Z,348.75
2023-02-16T09:14:03.218Z,371.25
2023-02-16T09:15:04.078Z,416.25
2023-02-16T09:16:05.300Z,450.00
2023-02-16T09:17:05.792Z,551.25
2023-02-16T09:18:06.592Z,765.00
2023-02-16T09:19:07.452Z,540.00
2023-02-16T09:20:08.306Z,736.88
2023-02-16T09:21:09.181Z,731.25
2023-02-16T09:22:10.013Z,770.62
2023-02-16T09:23:10.879Z,877.50
2023-02-16T09:24:11.731Z,731.25
2023-02-16T09:25:12.595Z,635.62
2023-02-16T09:26:13.473Z,652.50
2023-02-16T09:27:14.253Z,849.38
2023-02-16T09:28:15.107Z,765.00
2023-02-16T09:29:15.970Z,759.38
2023-02-16T09:30:16.887Z,821.25
2023-02-16T09:31:17.807Z,793.12
2023-02-16T09:32:18.621Z,781.88
2023-02-16T09:33:19.471Z,1153.12
2023-02-16T09:34:20.344Z,1423.12
2023-02-16T09:35:21.182Z,1428.75
2023-02-16T09:36:22.089Z,1653.75
2023-02-16T09:37:22.931Z,2041.88
2023-02-16T09:38:23.803Z,2323.12
2023-02-16T09:39:24.685Z,1946.25
2023-02-16T09:40:25.541Z,1468.12
2023-02-16T09:41:26.456Z,945.00
2023-02-16T09:42:27.246Z,759.38
2023-02-16T09:43:28.107Z,1080.00
2023-02-16T09:44:29.363Z,1485.00
2023-02-16T09:45:29.716Z,2581.88
2023-02-16T09:46:30.673Z,2880.00
2023-02-16T09:47:31.284Z,2874.38
2023-02-16T09:48:31.675Z,1501.88
2023-02-16T09:49:32.549Z,984.38
2023-02-16T09:50:52.692Z,1074.38
2023-02-16T09:51:35.208Z,714.38
2023-02-16T09:52:35.011Z,675.00
2023-02-16T09:53:35.862Z,1231.88
2023-02-16T09:54:36.869Z,646.88
2023-02-16T09:55:37.234Z,601.88
2023-02-16T09:56:38.114Z,568.12
2023-02-16T09:57:38.949Z,607.50
2023-02-16T09:58:39.798Z,652.50
2023-02-16T09:59:40.660Z,624.38
2023-02-16T10:00:41.510Z,579.38
2023-02-16T10:01:42.403Z,511.88
2023-02-16T10:02:43.302Z,461.25
2023-02-16T10:03:44.123Z,421.88
2023-02-16T10:04:46.194Z,388.12
2023-02-16T10:05:45.565Z,365.62
2023-02-16T10:06:46.454Z,348.75
2023-02-16T10:07:47.281Z,337.50
2023-02-16T10:08:48.132Z,331.88
2023-02-16T10:09:48.995Z,320.62
2023-02-16T10:10:49.870Z,309.38
2023-02-16T10:11:50.828Z,298.12
2023-02-16T10:12:51.602Z,292.50
2023-02-16T10:13:52.460Z,286.88
2023-02-16T10:14:53.317Z,281.25
2023-02-16T10:15:54.359Z,270.00
2023-02-16T10:16:54.664Z,264.38
2023-02-16T10:17:55.514Z,253.12
2023-02-16T10:18:56.372Z,241.88
2023-02-16T10:19:57.224Z,236.25
2023-02-16T10:20:58.076Z,225.00
2023-02-16T10:21:58.963Z,219.38
2023-02-16T10:22:59.788Z,219.38
2023-02-16T10:24:00.641Z,213.75
2023-02-16T10:25:01.494Z,213.75
2023-02-16T10:26:02.400Z,208.12
2023-02-16T10:27:03.231Z,208.12
2023-02-16T10:28:04.027Z,208.12
2023-02-16T10:29:04.875Z,208.12
2023-02-16T10:30:05.899Z,202.50
2023-02-16T10:31:07.207Z,196.88
2023-02-16T10:32:07.788Z,191.25
2023-02-16T10:33:08.605Z,185.62
2023-02-16T10:34:09.462Z,180.00
2023-02-16T10:35:10.370Z,180.00
2023-02-16T10:36:11.222Z,174.38
2023-02-16T10:37:12.106Z,168.75
2023-02-16T10:38:12.942Z,163.12
2023-02-16T10:39:13.787Z,157.50
2023-02-16T10:40:14.890Z,151.88
2023-02-16T10:41:15.249Z,146.25
2023-02-16T10:42:16.227Z,146.25
2023-02-16T10:43:17.038Z,146.25
2023-02-16T10:44:17.870Z,140.62
2023-02-16T10:45:18.739Z,140.62
2023-02-16T10:46:19.648Z,140.62
2023-02-16T10:47:20.478Z,135.00
2023-02-16T10:48:21.331Z,135.00
2023-02-16T10:49:22.186Z,129.38
2023-02-16T10:50:23.366Z,129.38
2023-02-16T10:51:25.539Z,123.75
2023-02-16T10:52:24.466Z,123.75
2023-02-16T10:53:25.257Z,123.75
2023-02-16T10:54:26.128Z,123.75
2023-02-16T10:55:26.980Z,123.75
2023-02-16T10:56:27.842Z,123.75
2023-02-16T10:57:28.801Z,123.75
2023-02-16T10:58:29.640Z,123.75
2023-02-16T10:59:30.076Z,123.75
2023-02-16T11:00:30.942Z,123.75
2023-02-16T11:01:31.858Z,123.75
2023-02-16T11:02:32.661Z,123.75
2023-02-16T11:03:33.536Z,123.75
2023-02-16T11:04:34.413Z,123.75
2023-02-16T11:05:35.371Z,129.38
2023-02-16T11:06:36.691Z,140.62
2023-02-16T11:07:36.561Z,146.25
2023-02-16T11:08:37.408Z,151.88
2023-02-16T11:09:38.262Z,157.50
2023-02-16T11:10:39.368Z,168.75
2023-02-16T11:11:39.734Z,180.00
2023-02-16T11:12:40.709Z,191.25
2023-02-16T11:13:41.489Z,208.12
2023-02-16T11:14:42.358Z,219.38
2023-02-16T11:15:43.408Z,236.25
2023-02-16T11:16:43.728Z,253.12
2023-02-16T11:17:44.672Z,270.00
2023-02-16T11:18:45.523Z,281.25
2023-02-16T11:19:46.406Z,298.12
2023-02-16T11:20:47.380Z,303.75
2023-02-16T11:21:48.233Z,320.62
2023-02-16T11:22:49.100Z,337.50
2023-02-16T11:23:49.954Z,365.62
2023-02-16T11:24:50.809Z,399.38
2023-02-16T11:25:51.681Z,438.75
2023-02-16T11:26:52.548Z,450.00
2023-02-16T11:27:53.526Z,438.75
2023-02-16T11:28:54.337Z,438.75
2023-02-16T11:29:55.273Z,433.12
2023-02-16T11:30:56.170Z,421.88
2023-02-16T11:31:57.159Z,450.00
2023-02-16T11:32:57.553Z,528.75
2023-02-16T11:33:58.432Z,579.38
2023-02-16T11:34:59.290Z,618.75
2023-02-16T11:36:00.377Z,635.62
2023-02-16T11:37:00.730Z,748.12
2023-02-16T11:38:01.732Z,860.62
2023-02-16T11:39:02.522Z,945.00
2023-02-16T11:40:03.378Z,939.38
2023-02-16T11:41:04.776Z,995.62
2023-02-16T11:42:04.757Z,1141.88
2023-02-16T11:43:05.632Z,1276.88
2023-02-16T11:44:06.444Z,1141.88
2023-02-16T11:45:07.308Z,1130.62
2023-02-16T11:46:08.382Z,1085.62
2023-02-16T11:47:08.721Z,1080.00
2023-02-16T11:48:09.568Z,978.75
2023-02-16T11:49:10.421Z,815.62
2023-02-16T11:50:11.274Z,680.62
2023-02-16T11:51:12.359Z,573.75
2023-02-16T11:52:12.709Z,500.62
2023-02-16T11:53:13.582Z,444.38
2023-02-16T11:54:14.412Z,393.75
2023-02-16T11:55:15.263Z,360.00
2023-02-16T11:56:16.361Z,337.50
2023-02-16T11:57:16.729Z,303.75
2023-02-16T11:58:17.604Z,281.25
2023-02-16T11:59:18.377Z,264.38
2023-02-16T12:00:19.238Z,247.50
2023-02-16T12:01:20.092Z,236.25
2023-02-16T12:02:20.947Z,230.62
2023-02-16T12:03:21.817Z,225.00
2023-02-16T12:04:22.650Z,219.38
2023-02-16T12:05:23.578Z,208.12
2023-02-16T12:06:24.872Z,196.88
2023-02-16T12:07:25.233Z,196.88
2023-02-16T12:08:26.106Z,202.50
2023-02-16T12:09:26.969Z,208.12
2023-02-16T12:10:27.801Z,208.12
2023-02-16T12:11:28.873Z,208.12
2023-02-16T12:12:29.217Z,202.50
2023-02-16T12:13:30.181Z,202.50
2023-02-16T12:14:30.966Z,196.88
2023-02-16T12:15:31.812Z,185.62
2023-02-16T12:16:32.877Z,174.38
2023-02-16T12:17:33.288Z,163.12
2023-02-16T12:18:34.127Z,151.88
2023-02-16T12:19:34.995Z,151.88
2023-02-16T12:20:35.855Z,157.50
2023-02-16T12:21:36.860Z,163.12
2023-02-16T12:22:37.220Z,163.12
2023-02-16T12:23:38.109Z,168.75
2023-02-16T12:24:38.920Z,168.75
2023-02-16T12:25:39.773Z,174.38
2023-02-16T12:26:40.862Z,174.38
2023-02-16T12:27:41.236Z,180.00
2023-02-16T12:28:42.183Z,174.38
2023-02-16T12:29:42.969Z,174.38
2023-02-16T12:30:43.825Z,168.75
2023-02-16T12:31:44.934Z,157.50
2023-02-16T12:32:45.240Z,157.50
2023-02-16T12:33:46.092Z,151.88
2023-02-16T12:34:48.628Z,151.88
2023-02-16T12:35:47.600Z,140.62
2023-02-16T12:36:48.465Z,135.00
2023-02-16T12:37:49.313Z,135.00
2023-02-16T12:38:50.195Z,129.38
2023-02-16T12:39:51.039Z,123.75
2023-02-16T12:40:51.892Z,112.50
2023-02-16T12:41:52.868Z,106.88
2023-02-16T12:42:53.737Z,106.88
2023-02-16T12:43:54.709Z,106.88
2023-02-16T12:44:55.489Z,112.50
2023-02-16T12:45:56.370Z,118.12
2023-02-16T12:46:57.257Z,123.75
2023-02-16T12:47:58.064Z,135.00
2023-02-16T12:48:58.912Z,140.62
2023-02-16T12:49:59.758Z,146.25
2023-02-16T12:51:00.611Z,157.50
2023-02-16T12:52:01.853Z,168.75
2023-02-16T12:53:02.246Z,174.38
2023-02-16T12:54:03.125Z,185.62
2023-02-16T12:55:03.966Z,191.25
2023-02-16T12:56:05.102Z,191.25
2023-02-16T12:57:05.566Z,196.88
2023-02-16T12:58:06.427Z,202.50
2023-02-16T12:59:07.395Z,213.75
2023-02-16T13:00:08.188Z,219.38
2023-02-16T13:01:09.161Z,225.00
2023-02-16T13:02:09.966Z,225.00
2023-02-16T13:03:10.854Z,213.75
2023-02-16T13:04:11.678Z,208.12
2023-02-16T13:05:12.529Z,196.88